Whitestown, New York
Current Conditions -  °F | °C
As of 10:53 AM on Wednesday 22 Oct 2014 (Local Time) from KRME Reporting Station
Overcast Overcast  
Wind Chill: 11°   Ceiling: 3200
Heat Index: 11°   Visibility: 10mi
Dew Point:   Wind: 6mph
Humidity: 80%   Direction: 360°N
Pressure: 30.14"   Gusts: NA
Location:  43.1203°N, 75.3249°W
Report Text: KRME 221453Z 36005KT 10SM OVC032 11/07 A3014 RMK AO2 SLP205 T01060072 51006
Loading
Personal Weather Stations






























Interactive Weather Map
Tropical Storm Tracking
New forecast layout! Learn more

10-Day Weather Forecast

Advertisements
Track Severe Weather on mobile